sensor_id;sensor_type;location;lat;lon;timestamp;pressure;altitude;pressure_sealevel;temperature;humidity
15272;BME280;7737;51.578;7.268;2024-01-07T00:01:01;101102.31;;;3.17;100.00
15272;BME280;7737;51.578;7.268;2024-01-07T00:03:28;101109.44;;;3.08;100.00
15272;BME280;7737;51.578;7.268;2024-01-07T00:05:55;101111.22;;;3.06;100.00
15272;BME280;7737;51.578;7.268;2024-01-07T00:08:21;101112.03;;;3.12;100.00
15272;BME280;7737;51.578;7.268;2024-01-07T00:10:48;101109.38;;;3.15;100.00
15272;BME280;7737;51.578;7.268;2024-01-07T00:13:14;101111.25;;;3.03;100.00
15272;BME280;7737;51.578;7.268;2024-01-07T00:15:41;101122.88;;;2.83;100.00
15272;BME280;7737;51.578;7.268;2024-01-07T00:18:08;101111.94;;;3.18;100.00
15272;BME280;7737;51.578;7.268;2024-01-07T00:20:36;101117.34;;;3.05;100.00
15272;BME280;7737;51.578;7.268;2024-01-07T00:23:03;101122.53;;;3.12;100.00
15272;BME280;7737;51.578;7.268;2024-01-07T00:25:29;101120.63;;;3.21;100.00
15272;BME280;7737;51.578;7.268;2024-01-07T00:27:55;101122.38;;;3.21;100.00
15272;BME280;7737;51.578;7.268;2024-01-07T00:30:22;101124.97;;;3.24;100.00
15272;BME280;7737;51.578;7.268;2024-01-07T00:32:48;101120.56;;;3.27;100.00
15272;BME280;7737;51.578;7.268;2024-01-07T00:35:16;101127.19;;;2.88;100.00
15272;BME280;7737;51.578;7.268;2024-01-07T00:37:44;101126.03;;;3.11;100.00
15272;BME280;7737;51.578;7.268;2024-01-07T00:40:11;101128.66;;;3.11;100.00
15272;BME280;7737;51.578;7.268;2024-01-07T00:42:38;101135.16;;;2.79;100.00
15272;BME280;7737;51.578;7.268;2024-01-07T00:45:05;101136.00;;;2.81;100.00
15272;BME280;7737;51.578;7.268;2024-01-07T00:47:32;101140.38;;;2.82;100.00
15272;BME280;7737;51.578;7.268;2024-01-07T00:49:58;101145.47;;;2.96;100.00
15272;BME280;7737;51.578;7.268;2024-01-07T00:52:25;101139.31;;;2.98;100.00
15272;BME280;7737;51.578;7.268;2024-01-07T00:54:53;101140.94;;;3.08;100.00
15272;BME280;7737;51.578;7.268;2024-01-07T00:57:19;101145.56;;;2.87;100.00
15272;BME280;7737;51.578;7.268;2024-01-07T00:59:44;101152.47;;;2.94;100.00
15272;BME280;7737;51.578;7.268;2024-01-07T01:02:11;101149.13;;;2.83;100.00
15272;BME280;7737;51.578;7.268;2024-01-07T01:04:40;101155.84;;;3.05;100.00
15272;BME280;7737;51.578;7.268;2024-01-07T01:07:07;101155.88;;;3.02;100.00
15272;BME280;7737;51.578;7.268;2024-01-07T01:09:39;101164.03;;;2.79;100.00
15272;BME280;7737;51.578;7.268;2024-01-07T01:12:09;101163.97;;;2.88;100.00
15272;BME280;7737;51.578;7.268;2024-01-07T01:14:36;101162.28;;;2.78;100.00
15272;BME280;7737;51.578;7.268;2024-01-07T01:17:03;101160.34;;;2.98;100.00
15272;BME280;7737;51.578;7.268;2024-01-07T01:19:29;101170.97;;;2.83;100.00
15272;BME280;7737;51.578;7.268;2024-01-07T01:21:56;101172.78;;;2.80;100.00
15272;BME280;7737;51.578;7.268;2024-01-07T01:24:22;101167.41;;;2.92;100.00
15272;BME280;7737;51.578;7.268;2024-01-07T01:26:49;101176.31;;;2.77;100.00
15272;BME280;7737;51.578;7.268;2024-01-07T01:29:16;101176.09;;;2.97;100.00
15272;BME280;7737;51.578;7.268;2024-01-07T01:31:43;101171.06;;;2.76;100.00
15272;BME280;7737;51.578;7.268;2024-01-07T01:34:09;101176.19;;;2.89;100.00
15272;BME280;7737;51.578;7.268;2024-01-07T01:36:36;101181.53;;;2.80;100.00
15272;BME280;7737;51.578;7.268;2024-01-07T01:39:02;101187.59;;;2.87;100.00
15272;BME280;7737;51.578;7.268;2024-01-07T01:41:29;101186.00;;;2.71;100.00
15272;BME280;7737;51.578;7.268;2024-01-07T01:43:57;101193.06;;;2.63;100.00
15272;BME280;7737;51.578;7.268;2024-01-07T01:46:25;101194.88;;;2.59;100.00
15272;BME280;7737;51.578;7.268;2024-01-07T01:48:52;101207.06;;;2.63;100.00
15272;BME280;7737;51.578;7.268;2024-01-07T01:51:19;101213.28;;;2.53;100.00
15272;BME280;7737;51.578;7.268;2024-01-07T01:53:47;101216.94;;;2.37;100.00
15272;BME280;7737;51.578;7.268;2024-01-07T01:56:14;101214.16;;;2.52;100.00
15272;BME280;7737;51.578;7.268;2024-01-07T01:58:43;101221.31;;;2.33;100.00
15272;BME280;7737;51.578;7.268;2024-01-07T02:01:10;101219.50;;;2.41;100.00
15272;BME280;7737;51.578;7.268;2024-01-07T02:03:37;101225.78;;;2.24;100.00
15272;BME280;7737;51.578;7.268;2024-01-07T02:06:04;101221.38;;;2.29;100.00
15272;BME280;7737;51.578;7.268;2024-01-07T02:08:31;101222.16;;;2.40;100.00
15272;BME280;7737;51.578;7.268;2024-01-07T02:10:58;101222.13;;;2.41;100.00
15272;BME280;7737;51.578;7.268;2024-01-07T02:13:25;101227.44;;;2.34;100.00
15272;BME280;7737;51.578;7.268;2024-01-07T02:15:51;101225.78;;;2.21;100.00
15272;BME280;7737;51.578;7.268;2024-01-07T02:18:18;101227.50;;;2.26;100.00
15272;BME280;7737;51.578;7.268;2024-01-07T02:20:46;101234.59;;;2.17;100.00
15272;BME280;7737;51.578;7.268;2024-01-07T02:23:12;101231.94;;;2.15;100.00
15272;BME280;7737;51.578;7.268;2024-01-07T02:25:40;101236.38;;;2.12;100.00
15272;BME280;7737;51.578;7.268;2024-01-07T02:28:07;101238.00;;;2.23;100.00
15272;BME280;7737;51.578;7.268;2024-01-07T02:30:34;101232.03;;;2.05;100.00
15272;BME280;7737;51.578;7.268;2024-01-07T02:33:02;101235.47;;;2.14;100.00
15272;BME280;7737;51.578;7.268;2024-01-07T02:35:29;101240.69;;;2.19;100.00
15272;BME280;7737;51.578;7.268;2024-01-07T02:37:56;101243.31;;;2.16;100.00
15272;BME280;7737;51.578;7.268;2024-01-07T02:40:22;101247.69;;;2.15;100.00
15272;BME280;7737;51.578;7.268;2024-01-07T02:42:50;101251.22;;;2.11;100.00
15272;BME280;7737;51.578;7.268;2024-01-07T02:45:17;101250.38;;;2.05;100.00
15272;BME280;7737;51.578;7.268;2024-01-07T02:47:44;101254.72;;;2.10;100.00
15272;BME280;7737;51.578;7.268;2024-01-07T02:50:10;101252.03;;;2.18;100.00
15272;BME280;7737;51.578;7.268;2024-01-07T02:52:37;101251.25;;;2.05;100.00
15272;BME280;7737;51.578;7.268;2024-01-07T02:55:04;101255.50;;;2.20;100.00
15272;BME280;7737;51.578;7.268;2024-01-07T02:57:30;101254.66;;;2.19;100.00
15272;BME280;7737;51.578;7.268;2024-01-07T02:59:58;101268.63;;;2.20;100.00
15272;BME280;7737;51.578;7.268;2024-01-07T03:02:25;101270.53;;;2.01;100.00
15272;BME280;7737;51.578;7.268;2024-01-07T03:04:51;101269.50;;;2.25;100.00
15272;BME280;7737;51.578;7.268;2024-01-07T03:07:17;101269.56;;;2.13;100.00
15272;BME280;7737;51.578;7.268;2024-01-07T03:09:44;101273.03;;;2.16;100.00
15272;BME280;7737;51.578;7.268;2024-01-07T03:12:10;101276.47;;;2.23;100.00
15272;BME280;7737;51.578;7.268;2024-01-07T03:14:37;101285.41;;;1.92;100.00
15272;BME280;7737;51.578;7.268;2024-01-07T03:17:05;101290.63;;;2.01;100.00
15272;BME280;7737;51.578;7.268;2024-01-07T03:19:32;101294.97;;;2.03;100.00
15272;BME280;7737;51.578;7.268;2024-01-07T03:21:59;101290.59;;;2.04;100.00
15272;BME280;7737;51.578;7.268;2024-01-07T03:24:25;101293.22;;;2.02;100.00
15272;BME280;7737;51.578;7.268;2024-01-07T03:26:52;101294.06;;;2.04;100.00
15272;BME280;7737;51.578;7.268;2024-01-07T03:29:18;101297.59;;;2.02;100.00
15272;BME280;7737;51.578;7.268;2024-01-07T03:31:45;101294.13;;;1.98;100.00
15272;BME280;7737;51.578;7.268;2024-01-07T03:34:12;101296.69;;;2.09;100.00
15272;BME280;7737;51.578;7.268;2024-01-07T03:36:39;101297.59;;;2.02;100.00
15272;BME280;7737;51.578;7.268;2024-01-07T03:39:05;101302.03;;;1.91;100.00
15272;BME280;7737;51.578;7.268;2024-01-07T03:41:32;101301.94;;;2.04;100.00
15272;BME280;7737;51.578;7.268;2024-01-07T03:43:59;101299.25;;;2.18;100.00
15272;BME280;7737;51.578;7.268;2024-01-07T03:46:25;101302.72;;;2.24;100.00
15272;BME280;7737;51.578;7.268;2024-01-07T03:48:52;101302.81;;;2.08;100.00
15272;BME280;7737;51.578;7.268;2024-01-07T03:51:20;101303.72;;;1.99;100.00
15272;BME280;7737;51.578;7.268;2024-01-07T03:53:46;101308.97;;;1.96;100.00
15272;BME280;7737;51.578;7.268;2024-01-07T03:56:13;101308.13;;;1.91;100.00
15272;BME280;7737;51.578;7.268;2024-01-07T03:58:39;101313.38;;;1.93;100.00
15272;BME280;7737;51.578;7.268;2024-01-07T04:01:06;101318.63;;;1.96;100.00
15272;BME280;7737;51.578;7.268;2024-01-07T04:03:32;101317.78;;;1.84;100.00
15272;BME280;7737;51.578;7.268;2024-01-07T04:05:59;101319.56;;;1.82;100.00
15272;BME280;7737;51.578;7.268;2024-01-07T04:08:26;101325.56;;;1.97;100.00
15272;BME280;7737;51.578;7.268;2024-01-07T04:10:53;101330.03;;;1.78;100.00
15272;BME280;7737;51.578;7.268;2024-01-07T04:13:20;101326.50;;;1.83;100.00
15272;BME280;7737;51.578;7.268;2024-01-07T04:15:46;101332.66;;;1.82;100.00
15272;BME280;7737;51.578;7.268;2024-01-07T04:18:13;101334.41;;;1.77;100.00
15272;BME280;7737;51.578;7.268;2024-01-07T04:20:39;101335.28;;;1.78;100.00
15272;BME280;7737;51.578;7.268;2024-01-07T04:23:06;101334.41;;;1.77;100.00
15272;BME280;7737;51.578;7.268;2024-01-07T04:25:34;101338.72;;;1.95;100.00
15272;BME280;7737;51.578;7.268;2024-01-07T04:28:00;101343.13;;;1.87;100.00
15272;BME280;7737;51.578;7.268;2024-01-07T04:30:27;101344.00;;;1.81;100.00
15272;BME280;7737;51.578;7.268;2024-01-07T04:32:53;101348.41;;;1.73;100.00
15272;BME280;7737;51.578;7.268;2024-01-07T04:35:20;101354.53;;;1.68;100.00
15272;BME280;7737;51.578;7.268;2024-01-07T04:37:46;101355.41;;;1.68;100.00
15272;BME280;7737;51.578;7.268;2024-01-07T04:40:13;101352.78;;;1.67;100.00
15272;BME280;7737;51.578;7.268;2024-01-07T04:42:41;101347.53;;;1.73;100.00
15272;BME280;7737;51.578;7.268;2024-01-07T04:45:08;101356.28;;;1.66;100.00
15272;BME280;7737;51.578;7.268;2024-01-07T04:47:34;101360.66;;;1.68;100.00
15272;BME280;7737;51.578;7.268;2024-01-07T04:50:01;101363.19;;;1.90;100.00
15272;BME280;7737;51.578;7.268;2024-01-07T04:52:28;101360.66;;;1.71;100.00
15272;BME280;7737;51.578;7.268;2024-01-07T04:54:55;101365.88;;;1.74;100.00
15272;BME280;7737;51.578;7.268;2024-01-07T04:57:22;101365.84;;;1.83;100.00
15272;BME280;7737;51.578;7.268;2024-01-07T04:59:50;101361.53;;;1.60;100.00
15272;BME280;7737;51.578;7.268;2024-01-07T05:02:17;101370.28;;;1.66;100.00
15272;BME280;7737;51.578;7.268;2024-01-07T05:04:43;101375.50;;;1.68;100.00
15272;BME280;7737;51.578;7.268;2024-01-07T05:07:10;101368.50;;;1.67;100.00
15272;BME280;7737;51.578;7.268;2024-01-07T05:09:38;101382.50;;;1.54;100.00
15272;BME280;7737;51.578;7.268;2024-01-07T05:12:06;101373.72;;;1.70;100.00
15272;BME280;7737;51.578;7.268;2024-01-07T05:14:32;101386.88;;;1.61;100.00
15272;BME280;7737;51.578;7.268;2024-01-07T05:17:00;101381.59;;;1.67;100.00
15272;BME280;7737;51.578;7.268;2024-01-07T05:19:26;101388.53;;;1.86;100.00
15272;BME280;7737;51.578;7.268;2024-01-07T05:21:53;101386.78;;;1.91;100.00
15272;BME280;7737;51.578;7.268;2024-01-07T05:24:20;101394.72;;;1.68;100.00
15272;BME280;7737;51.578;7.268;2024-01-07T05:26:46;101395.56;;;1.79;100.00
15272;BME280;7737;51.578;7.268;2024-01-07T05:29:13;101406.06;;;1.64;100.00
15272;BME280;7737;51.578;7.268;2024-01-07T05:31:39;101407.84;;;1.58;100.00
15272;BME280;7737;51.578;7.268;2024-01-07T05:34:07;101398.22;;;1.72;100.00
15272;BME280;7737;51.578;7.268;2024-01-07T05:36:34;101406.94;;;1.68;100.00
15272;BME280;7737;51.578;7.268;2024-01-07T05:39:01;101411.31;;;1.64;100.00
15272;BME280;7737;51.578;7.268;2024-01-07T05:41:27;101416.56;;;1.72;100.00
15272;BME280;7737;51.578;7.268;2024-01-07T05:43:54;101418.28;;;1.82;100.00
15272;BME280;7737;51.578;7.268;2024-01-07T05:46:20;101424.44;;;1.58;100.00
15272;BME280;7737;51.578;7.268;2024-01-07T05:48:48;101420.97;;;1.47;100.00
15272;BME280;7737;51.578;7.268;2024-01-07T05:51:16;101430.53;;;1.66;100.00
15272;BME280;7737;51.578;7.268;2024-01-07T05:53:44;101423.56;;;1.50;100.00
15272;BME280;7737;51.578;7.268;2024-01-07T05:56:11;101432.28;;;1.52;100.00
15272;BME280;7737;51.578;7.268;2024-01-07T05:58:38;101440.16;;;1.54;100.00
15272;BME280;7737;51.578;7.268;2024-01-07T06:01:05;101437.53;;;1.55;100.00
15272;BME280;7737;51.578;7.268;2024-01-07T06:03:32;101447.16;;;1.43;100.00
15272;BME280;7737;51.578;7.268;2024-01-07T06:05:59;101451.53;;;1.42;100.00
15272;BME280;7737;51.578;7.268;2024-01-07T06:08:27;101455.00;;;1.38;100.00
15272;BME280;7737;51.578;7.268;2024-01-07T06:10:53;101455.88;;;1.43;100.00
15272;BME280;7737;51.578;7.268;2024-01-07T06:13:20;101462.00;;;1.39;100.00
15272;BME280;7737;51.578;7.268;2024-01-07T06:15:46;101447.16;;;1.38;100.00
15272;BME280;7737;51.578;7.268;2024-01-07T06:18:13;101460.25;;;1.29;100.00
15272;BME280;7737;51.578;7.268;2024-01-07T06:20:39;101458.53;;;1.40;100.00
15272;BME280;7737;51.578;7.268;2024-01-07T06:23:06;101470.72;;;1.35;100.00
15272;BME280;7737;51.578;7.268;2024-01-07T06:25:34;101467.25;;;1.39;100.00
15272;BME280;7737;51.578;7.268;2024-01-07T06:28:01;101475.09;;;1.44;100.00
15272;BME280;7737;51.578;7.268;2024-01-07T06:30:27;101480.34;;;1.42;100.00
15272;BME280;7737;51.578;7.268;2024-01-07T06:32:55;101482.97;;;1.48;100.00
15272;BME280;7737;51.578;7.268;2024-01-07T06:35:21;101489.06;;;1.34;100.00
15272;BME280;7737;51.578;7.268;2024-01-07T06:37:48;101491.66;;;1.35;100.00
15272;BME280;7737;51.578;7.268;2024-01-07T06:40:15;101483.81;;;1.34;100.00
15272;BME280;7737;51.578;7.268;2024-01-07T06:42:43;101487.31;;;1.33;100.00
15272;BME280;7737;51.578;7.268;2024-01-07T06:45:10;101490.78;;;1.22;100.00
15272;BME280;7737;51.578;7.268;2024-01-07T06:47:36;101499.53;;;1.44;100.00
15272;BME280;7737;51.578;7.268;2024-01-07T06:50:03;101503.91;;;1.47;100.00
15272;BME280;7737;51.578;7.268;2024-01-07T06:52:30;101507.41;;;1.29;100.00
15272;BME280;7737;51.578;7.268;2024-01-07T06:54:57;101509.13;;;1.33;100.00
15272;BME280;7737;51.578;7.268;2024-01-07T06:57:24;101507.41;;;1.44;100.00
15272;BME280;7737;51.578;7.268;2024-01-07T06:59:52;101515.25;;;1.41;100.00
15272;BME280;7737;51.578;7.268;2024-01-07T07:02:20;101519.63;;;1.42;100.00
15272;BME280;7737;51.578;7.268;2024-01-07T07:04:46;101518.75;;;1.40;100.00
15272;BME280;7737;51.578;7.268;2024-01-07T07:07:13;101522.25;;;1.48;100.00
15272;BME280;7737;51.578;7.268;2024-01-07T07:09:39;101531.84;;;1.31;100.00
15272;BME280;7737;51.578;7.268;2024-01-07T07:12:06;101534.44;;;1.33;100.00
15272;BME280;7737;51.578;7.268;2024-01-07T07:14:33;101545.81;;;1.24;100.00
15272;BME280;7737;51.578;7.268;2024-01-07T07:17:01;101551.88;;;1.17;100.00
15272;BME280;7737;51.578;7.268;2024-01-07T07:19:28;101552.78;;;1.19;100.00
15272;BME280;7737;51.578;7.268;2024-01-07T07:21:56;101559.72;;;1.00;100.00
15272;BME280;7737;51.578;7.268;2024-01-07T07:24:22;101559.72;;;1.08;100.00
15272;BME280;7737;51.578;7.268;2024-01-07T07:26:49;101565.84;;;1.17;100.00
15272;BME280;7737;51.578;7.268;2024-01-07T07:29:15;101565.81;;;0.95;100.00
15272;BME280;7737;51.578;7.268;2024-01-07T07:31:42;101565.81;;;1.11;100.00
15272;BME280;7737;51.578;7.268;2024-01-07T07:34:10;101575.41;;;0.97;100.00
15272;BME280;7737;51.578;7.268;2024-01-07T07:36:37;101582.34;;;0.88;100.00
15272;BME280;7737;51.578;7.268;2024-01-07T07:39:05;101585.03;;;1.06;100.00
15272;BME280;7737;51.578;7.268;2024-01-07T07:41:31;101595.50;;;1.06;100.00
15272;BME280;7737;51.578;7.268;2024-01-07T07:43:58;101595.50;;;1.12;100.00
15272;BME280;7737;51.578;7.268;2024-01-07T07:46:24;101610.25;;;0.86;100.00
15272;BME280;7737;51.578;7.268;2024-01-07T07:48:51;101612.91;;;1.01;100.00
15272;BME280;7737;51.578;7.268;2024-01-07T07:51:19;101615.50;;;0.89;100.00
15272;BME280;7737;51.578;7.268;2024-01-07T07:53:45;101619.06;;;1.12;100.00
15272;BME280;7737;51.578;7.268;2024-01-07T07:56:12;101629.53;;;1.12;100.00
15272;BME280;7737;51.578;7.268;2024-01-07T07:58:38;101629.50;;;1.00;100.00
15272;BME280;7737;51.578;7.268;2024-01-07T08:01:05;101645.22;;;1.09;100.00
15272;BME280;7737;51.578;7.268;2024-01-07T08:03:31;101647.81;;;1.01;100.00
15272;BME280;7737;51.578;7.268;2024-01-07T08:05:58;101652.19;;;1.01;100.00
15272;BME280;7737;51.578;7.268;2024-01-07T08:08:26;101647.00;;;1.10;100.00
15272;BME280;7737;51.578;7.268;2024-01-07T08:10:52;101651.41;;;1.18;100.00
15272;BME280;7737;51.578;7.268;2024-01-07T08:13:19;101660.06;;;1.07;100.00
15272;BME280;7737;51.578;7.268;2024-01-07T08:15:46;101650.44;;;0.98;100.00
15272;BME280;7737;51.578;7.268;2024-01-07T08:18:13;101662.63;;;0.93;100.00
15272;BME280;7737;51.578;7.268;2024-01-07T08:20:39;101661.84;;;1.11;100.00
15272;BME280;7737;51.578;7.268;2024-01-07T08:23:06;101663.56;;;1.03;100.00
15272;BME280;7737;51.578;7.268;2024-01-07T08:25:34;101670.50;;;1.01;100.00
15272;BME280;7737;51.578;7.268;2024-01-07T08:28:00;101678.31;;;0.89;100.00
15272;BME280;7737;51.578;7.268;2024-01-07T08:30:27;101683.50;;;0.83;100.00
15272;BME280;7737;51.578;7.268;2024-01-07T08:32:53;101674.88;;;1.02;100.00
15272;BME280;7737;51.578;7.268;2024-01-07T08:35:20;101677.47;;;0.96;100.00
15272;BME280;7737;51.578;7.268;2024-01-07T08:37:47;101680.97;;;0.96;100.00
15272;BME280;7737;51.578;7.268;2024-01-07T08:40:14;101687.91;;;0.93;100.00
15272;BME280;7737;51.578;7.268;2024-01-07T08:42:45;101685.31;;;0.94;100.00
15272;BME280;7737;51.578;7.268;2024-01-07T08:45:12;101689.66;;;0.85;100.00
15272;BME280;7737;51.578;7.268;2024-01-07T08:47:38;101689.66;;;0.91;100.00
15272;BME280;7737;51.578;7.268;2024-01-07T08:50:06;101694.88;;;0.88;100.00
15272;BME280;7737;51.578;7.268;2024-01-07T08:52:33;101701.78;;;0.75;100.00
15272;BME280;7737;51.578;7.268;2024-01-07T08:55:00;101705.34;;;0.85;100.00
15272;BME280;7737;51.578;7.268;2024-01-07T08:57:27;101709.72;;;0.90;100.00
15272;BME280;7737;51.578;7.268;2024-01-07T08:59:55;101713.13;;;0.76;100.00
15272;BME280;7737;51.578;7.268;2024-01-07T09:02:21;101704.50;;;0.93;100.00
15272;BME280;7737;51.578;7.268;2024-01-07T09:04:48;101714.94;;;0.86;100.00
15272;BME280;7737;51.578;7.268;2024-01-07T09:07:14;101709.72;;;0.89;100.00
15272;BME280;7737;51.578;7.268;2024-01-07T09:09:41;101721.91;;;0.84;100.00
15272;BME280;7737;51.578;7.268;2024-01-07T09:12:08;101727.16;;;0.88;100.00
15272;BME280;7737;51.578;7.268;2024-01-07T09:14:37;101732.41;;;0.90;100.00
15272;BME280;7737;51.578;7.268;2024-01-07T09:17:05;101728.03;;;0.90;100.00
15272;BME280;7737;51.578;7.268;2024-01-07T09:19:31;101735.81;;;0.80;100.00
15272;BME280;7737;51.578;7.268;2024-01-07T09:21:58;101730.59;;;0.77;100.00
15272;BME280;7737;51.578;7.268;2024-01-07T09:24:24;101743.72;;;0.86;100.00
15272;BME280;7737;51.578;7.268;2024-01-07T09:26:51;101742.75;;;0.72;100.00
15272;BME280;7737;51.578;7.268;2024-01-07T09:29:18;101747.16;;;0.76;100.00
15272;BME280;7737;51.578;7.268;2024-01-07T09:31:44;101754.16;;;0.77;100.00
15272;BME280;7737;51.578;7.268;2024-01-07T09:34:12;101747.16;;;0.76;100.00
15272;BME280;7737;51.578;7.268;2024-01-07T09:36:38;101757.59;;;0.73;100.00
15272;BME280;7737;51.578;7.268;2024-01-07T09:39:05;101759.38;;;0.80;100.00
15272;BME280;7737;51.578;7.268;2024-01-07T09:41:32;101761.19;;;0.88;100.00
15272;BME280;7737;51.578;7.268;2024-01-07T09:43:59;101766.44;;;0.90;100.00
15272;BME280;7737;51.578;7.268;2024-01-07T09:46:26;101763.75;;;0.82;100.00
15272;BME280;7737;51.578;7.268;2024-01-07T09:48:55;101769.03;;;0.87;100.00
15272;BME280;7737;51.578;7.268;2024-01-07T09:51:23;101774.19;;;0.78;100.00
15272;BME280;7737;51.578;7.268;2024-01-07T09:53:55;101764.59;;;0.77;100.00
15272;BME280;7737;51.578;7.268;2024-01-07T09:56:25;101764.59;;;0.78;100.00
15272;BME280;7737;51.578;7.268;2024-01-07T09:58:52;101769.00;;;0.84;100.00
15272;BME280;7737;51.578;7.268;2024-01-07T10:01:19;101774.09;;;0.64;100.00
15272;BME280;7737;51.578;7.268;2024-01-07T10:03:46;101775.97;;;0.79;100.00
15272;BME280;7737;51.578;7.268;2024-01-07T10:06:12;101779.53;;;0.93;100.00
15272;BME280;7737;51.578;7.268;2024-01-07T10:08:40;101774.16;;;0.75;100.00
15272;BME280;7737;51.578;7.268;2024-01-07T10:11:07;101785.69;;;1.01;100.00
15272;BME280;7737;51.578;7.268;2024-01-07T10:13:34;101786.44;;;0.82;100.00
15272;BME280;7737;51.578;7.268;2024-01-07T10:16:01;101779.50;;;0.88;100.00
15272;BME280;7737;51.578;7.268;2024-01-07T10:18:36;101776.88;;;0.88;100.00
15272;BME280;7737;51.578;7.268;2024-01-07T10:21:03;101779.47;;;0.84;100.00
15272;BME280;7737;51.578;7.268;2024-01-07T10:23:32;101781.22;;;0.82;100.00
15272;BME280;7737;51.578;7.268;2024-01-07T10:26:00;101782.91;;;0.80;100.00
15272;BME280;7737;51.578;7.268;2024-01-07T10:28:28;101788.22;;;0.89;100.00
15272;BME280;7737;51.578;7.268;2024-01-07T10:30:54;101786.41;;;0.77;100.00
15272;BME280;7737;51.578;7.268;2024-01-07T10:33:21;101778.66;;;0.91;100.00
15272;BME280;7737;51.578;7.268;2024-01-07T10:35:54;101790.84;;;0.84;100.00
15272;BME280;7737;51.578;7.268;2024-01-07T10:38:22;101789.91;;;0.78;100.00
15272;BME280;7737;51.578;7.268;2024-01-07T10:40:52;101784.75;;;0.90;100.00
15272;BME280;7737;51.578;7.268;2024-01-07T10:43:21;101789.06;;;0.83;100.00
15272;BME280;7737;51.578;7.268;2024-01-07T10:45:48;101789.03;;;0.79;100.00
15272;BME280;7737;51.578;7.268;2024-01-07T10:48:17;101784.69;;;0.82;100.00
15272;BME280;7737;51.578;7.268;2024-01-07T10:50:45;101786.47;;;0.85;100.00
15272;BME280;7737;51.578;7.268;2024-01-07T10:53:17;101780.28;;;0.74;100.00
15272;BME280;7737;51.578;7.268;2024-01-07T10:55:50;101781.28;;;0.94;100.00
15272;BME280;7737;51.578;7.268;2024-01-07T10:58:20;101793.38;;;0.75;100.00
15272;BME280;7737;51.578;7.268;2024-01-07T11:00:49;101785.63;;;0.87;100.00
15272;BME280;7737;51.578;7.268;2024-01-07T11:03:18;101777.63;;;0.71;100.00
15272;BME280;7737;51.578;7.268;2024-01-07T11:05:50;101792.47;;;0.69;100.00
15272;BME280;7737;51.578;7.268;2024-01-07T11:08:23;101795.09;;;0.73;100.00
15272;BME280;7737;51.578;7.268;2024-01-07T11:10:55;101795.09;;;0.75;100.00
15272;BME280;7737;51.578;7.268;2024-01-07T11:13:34;101799.34;;;0.59;100.00
15272;BME280;7737;51.578;7.268;2024-01-07T11:16:03;101798.50;;;0.65;100.00
15272;BME280;7737;51.578;7.268;2024-01-07T11:18:30;101807.97;;;0.50;100.00
15272;BME280;7737;51.578;7.268;2024-01-07T11:20:59;101805.47;;;0.63;100.00
15272;BME280;7737;51.578;7.268;2024-01-07T11:23:27;101814.19;;;0.61;100.00
15272;BME280;7737;51.578;7.268;2024-01-07T11:25:56;101799.31;;;0.54;100.00
15272;BME280;7737;51.578;7.268;2024-01-07T11:28:47;101814.16;;;0.58;100.00
15272;BME280;7737;51.578;7.268;2024-01-07T11:31:16;101811.44;;;0.48;100.00
15272;BME280;7737;51.578;7.268;2024-01-07T11:33:43;101807.09;;;0.48;100.00
15272;BME280;7737;51.578;7.268;2024-01-07T11:36:11;101817.56;;;0.48;100.00
15272;BME280;7737;51.578;7.268;2024-01-07T11:38:41;101812.28;;;0.45;100.00
15272;BME280;7737;51.578;7.268;2024-01-07T11:41:09;101808.84;;;0.51;100.00
15272;BME280;7737;51.578;7.268;2024-01-07T11:43:37;101814.97;;;0.51;100.00
15272;BME280;7737;51.578;7.268;2024-01-07T11:46:04;101811.38;;;0.39;100.00
15272;BME280;7737;51.578;7.268;2024-01-07T11:48:32;101806.19;;;0.43;100.00
15272;BME280;7737;51.578;7.268;2024-01-07T11:50:59;101810.50;;;0.38;100.00
15272;BME280;7737;51.578;7.268;2024-01-07T11:53:25;101809.59;;;0.36;100.00
15272;BME280;7737;51.578;7.268;2024-01-07T11:55:52;101815.66;;;0.32;100.00
15272;BME280;7737;51.578;7.268;2024-01-07T11:58:18;101817.31;;;0.24;100.00
15272;BME280;7737;51.578;7.268;2024-01-07T12:00:45;101811.44;;;0.45;100.00
15272;BME280;7737;51.578;7.268;2024-01-07T12:03:11;101818.41;;;0.46;100.00
15272;BME280;7737;51.578;7.268;2024-01-07T12:05:39;101808.63;;;0.25;100.00
15272;BME280;7737;51.578;7.268;2024-01-07T12:08:06;101813.16;;;0.44;100.00
15272;BME280;7737;51.578;7.268;2024-01-07T12:10:33;101822.75;;;0.42;100.00
15272;BME280;7737;51.578;7.268;2024-01-07T12:13:00;101816.59;;;0.39;100.00
15272;BME280;7737;51.578;7.268;2024-01-07T12:15:27;101816.66;;;0.46;100.00
15272;BME280;7737;51.578;7.268;2024-01-07T12:17:57;101819.31;;;0.49;100.00
15272;BME280;7737;51.578;7.268;2024-01-07T12:20:25;101825.38;;;0.42;100.00
15272;BME280;7737;51.578;7.268;2024-01-07T12:22:55;101817.53;;;0.42;100.00
15272;BME280;7737;51.578;7.268;2024-01-07T12:25:22;101823.47;;;0.28;100.00
15272;BME280;7737;51.578;7.268;2024-01-07T12:27:50;101822.66;;;0.33;100.00
15272;BME280;7737;51.578;7.268;2024-01-07T12:30:19;101827.06;;;0.40;100.00
15272;BME280;7737;51.578;7.268;2024-01-07T12:32:46;101824.34;;;0.28;100.00
15272;BME280;7737;51.578;7.268;2024-01-07T12:35:12;101820.03;;;0.35;100.00
15272;BME280;7737;51.578;7.268;2024-01-07T12:37:39;101817.44;;;0.36;100.00
15272;BME280;7737;51.578;7.268;2024-01-07T12:40:08;101833.19;;;0.39;100.00
15272;BME280;7737;51.578;7.268;2024-01-07T12:42:36;101832.25;;;0.34;100.00
15272;BME280;7737;51.578;7.268;2024-01-07T12:45:05;101830.56;;;0.41;100.00
15272;BME280;7737;51.578;7.268;2024-01-07T12:47:32;101839.41;;;0.52;100.00
15272;BME280;7737;51.578;7.268;2024-01-07T12:49:59;101835.03;;;0.52;100.00
15272;BME280;7737;51.578;7.268;2024-01-07T12:52:26;101842.78;;;0.43;100.00
15272;BME280;7737;51.578;7.268;2024-01-07T12:54:53;101830.59;;;0.42;100.00
15272;BME280;7737;51.578;7.268;2024-01-07T12:57:23;101828.88;;;0.46;100.00
15272;BME280;7737;51.578;7.268;2024-01-07T12:59:50;101837.66;;;0.52;100.00